sensor_id;sensor_type;location;lat;lon;timestamp;pressure;altitude;pressure_sealevel;temperature;humidity
77381;BME280;66439;50.106;10.996;2024-01-06T00:01:34;97477.35;;;6.38;67.84
77381;BME280;66439;50.106;10.996;2024-01-06T00:03:37;97480.49;;;6.36;67.69
77381;BME280;66439;50.106;10.996;2024-01-06T00:05:40;97476.86;;;6.34;67.71
77381;BME280;66439;50.106;10.996;2024-01-06T00:07:46;97479.62;;;6.30;67.67
77381;BME280;66439;50.106;10.996;2024-01-06T00:09:49;97479.09;;;6.27;67.80
77381;BME280;66439;50.106;10.996;2024-01-06T00:11:54;97478.77;;;6.27;67.81
77381;BME280;66439;50.106;10.996;2024-01-06T00:13:57;97482.52;;;6.28;67.89
77381;BME280;66439;50.106;10.996;2024-01-06T00:16:01;97481.98;;;6.30;67.87
77381;BME280;66439;50.106;10.996;2024-01-06T00:18:08;97478.85;;;6.29;67.83
77381;BME280;66439;50.106;10.996;2024-01-06T00:20:11;97476.56;;;6.29;67.99
77381;BME280;66439;50.106;10.996;2024-01-06T00:22:14;97477.56;;;6.30;68.10
77381;BME280;66439;50.106;10.996;2024-01-06T00:24:17;97476.45;;;6.29;67.95
77381;BME280;66439;50.106;10.996;2024-01-06T00:26:20;97470.64;;;6.29;68.14
77381;BME280;66439;50.106;10.996;2024-01-06T00:28:23;97470.71;;;6.28;67.87
77381;BME280;66439;50.106;10.996;2024-01-06T00:30:28;97466.64;;;6.27;67.79
77381;BME280;66439;50.106;10.996;2024-01-06T00:32:31;97466.52;;;6.22;67.63
77381;BME280;66439;50.106;10.996;2024-01-06T00:34:36;97464.25;;;6.20;67.45
77381;BME280;66439;50.106;10.996;2024-01-06T00:36:40;97465.41;;;6.16;67.46
77381;BME280;66439;50.106;10.996;2024-01-06T00:38:43;97468.01;;;6.12;67.79
77381;BME280;66439;50.106;10.996;2024-01-06T00:40:46;97471.17;;;6.12;67.76
77381;BME280;66439;50.106;10.996;2024-01-06T00:42:49;97475.42;;;6.10;67.76
77381;BME280;66439;50.106;10.996;2024-01-06T00:44:52;97474.05;;;6.08;67.61
77381;BME280;66439;50.106;10.996;2024-01-06T00:46:55;97471.48;;;6.06;67.67
77381;BME280;66439;50.106;10.996;2024-01-06T00:48:58;97473.12;;;6.06;67.81
77381;BME280;66439;50.106;10.996;2024-01-06T00:51:02;97473.36;;;6.05;67.91
77381;BME280;66439;50.106;10.996;2024-01-06T00:53:05;97474.65;;;6.07;67.89
77381;BME280;66439;50.106;10.996;2024-01-06T00:55:08;97477.98;;;6.11;68.14
77381;BME280;66439;50.106;10.996;2024-01-06T00:57:11;97480.90;;;6.14;68.09
77381;BME280;66439;50.106;10.996;2024-01-06T00:59:21;97482.17;;;6.16;68.32
77381;BME280;66439;50.106;10.996;2024-01-06T01:01:23;97485.41;;;6.18;68.23
77381;BME280;66439;50.106;10.996;2024-01-06T01:03:26;97489.46;;;6.18;68.35
77381;BME280;66439;50.106;10.996;2024-01-06T01:05:29;97496.35;;;6.19;68.28
77381;BME280;66439;50.106;10.996;2024-01-06T01:07:33;97498.61;;;6.19;68.36
77381;BME280;66439;50.106;10.996;2024-01-06T01:09:38;97504.46;;;6.19;68.31
77381;BME280;66439;50.106;10.996;2024-01-06T01:11:41;97509.16;;;6.15;68.01
77381;BME280;66439;50.106;10.996;2024-01-06T01:13:44;97511.98;;;6.09;67.57
77381;BME280;66439;50.106;10.996;2024-01-06T01:15:47;97514.66;;;6.04;67.80
77381;BME280;66439;50.106;10.996;2024-01-06T01:17:51;97517.81;;;6.00;67.90
77381;BME280;66439;50.106;10.996;2024-01-06T01:19:57;97520.27;;;5.95;68.13
77381;BME280;66439;50.106;10.996;2024-01-06T01:22:03;97523.14;;;5.95;68.20
77381;BME280;66439;50.106;10.996;2024-01-06T01:24:07;97522.06;;;5.94;68.18
77381;BME280;66439;50.106;10.996;2024-01-06T01:26:10;97519.70;;;5.93;68.15
77381;BME280;66439;50.106;10.996;2024-01-06T01:28:13;97519.56;;;5.92;68.21
77381;BME280;66439;50.106;10.996;2024-01-06T01:30:16;97528.11;;;5.91;68.29
77381;BME280;66439;50.106;10.996;2024-01-06T01:32:19;97529.30;;;5.93;68.28
77381;BME280;66439;50.106;10.996;2024-01-06T01:34:22;97536.23;;;5.96;68.31
77381;BME280;66439;50.106;10.996;2024-01-06T01:36:26;97537.35;;;5.98;68.42
77381;BME280;66439;50.106;10.996;2024-01-06T01:38:28;97538.22;;;5.99;68.37
77381;BME280;66439;50.106;10.996;2024-01-06T01:40:31;97535.91;;;6.00;68.27
77381;BME280;66439;50.106;10.996;2024-01-06T01:42:34;97532.64;;;6.01;68.21
77381;BME280;66439;50.106;10.996;2024-01-06T01:44:37;97535.20;;;6.01;68.18
77381;BME280;66439;50.106;10.996;2024-01-06T01:46:40;97536.34;;;6.02;68.25
77381;BME280;66439;50.106;10.996;2024-01-06T01:48:43;97540.77;;;6.02;68.11
77381;BME280;66439;50.106;10.996;2024-01-06T01:50:47;97542.09;;;6.01;68.14
77381;BME280;66439;50.106;10.996;2024-01-06T01:52:50;97546.17;;;5.99;68.20
77381;BME280;66439;50.106;10.996;2024-01-06T01:54:55;97546.75;;;5.97;68.11
77381;BME280;66439;50.106;10.996;2024-01-06T01:56:59;97546.30;;;5.94;67.92
77381;BME280;66439;50.106;10.996;2024-01-06T01:59:06;97547.36;;;5.88;67.98
77381;BME280;66439;50.106;10.996;2024-01-06T02:01:12;97546.30;;;5.84;68.15
77381;BME280;66439;50.106;10.996;2024-01-06T02:03:15;97547.34;;;5.83;68.36
77381;BME280;66439;50.106;10.996;2024-01-06T02:05:19;97551.21;;;5.78;68.12
77381;BME280;66439;50.106;10.996;2024-01-06T02:07:22;97552.23;;;5.76;68.35
77381;BME280;66439;50.106;10.996;2024-01-06T02:09:25;97553.35;;;5.75;68.35
77381;BME280;66439;50.106;10.996;2024-01-06T02:11:32;97550.47;;;5.77;68.33
77381;BME280;66439;50.106;10.996;2024-01-06T02:13:36;97552.08;;;5.80;68.39
77381;BME280;66439;50.106;10.996;2024-01-06T02:15:39;97553.00;;;5.84;68.55
77381;BME280;66439;50.106;10.996;2024-01-06T02:17:43;97551.12;;;5.87;68.55
77381;BME280;66439;50.106;10.996;2024-01-06T02:19:46;97552.92;;;5.88;68.47
77381;BME280;66439;50.106;10.996;2024-01-06T02:21:52;97551.67;;;5.88;68.57
77381;BME280;66439;50.106;10.996;2024-01-06T02:23:55;97560.52;;;5.89;68.53
77381;BME280;66439;50.106;10.996;2024-01-06T02:25:58;97559.70;;;5.89;68.54
77381;BME280;66439;50.106;10.996;2024-01-06T02:28:03;97563.73;;;5.89;68.45
77381;BME280;66439;50.106;10.996;2024-01-06T02:30:07;97564.40;;;5.88;68.36
77381;BME280;66439;50.106;10.996;2024-01-06T02:32:10;97565.01;;;5.87;68.48
77381;BME280;66439;50.106;10.996;2024-01-06T02:34:13;97560.92;;;5.86;68.36
77381;BME280;66439;50.106;10.996;2024-01-06T02:36:17;97566.52;;;5.86;68.49
77381;BME280;66439;50.106;10.996;2024-01-06T02:38:26;97561.59;;;5.83;68.31
77381;BME280;66439;50.106;10.996;2024-01-06T02:40:29;97565.21;;;5.82;68.43
77381;BME280;66439;50.106;10.996;2024-01-06T02:42:33;97568.94;;;5.82;68.40
77381;BME280;66439;50.106;10.996;2024-01-06T02:44:36;97565.73;;;5.79;68.18
77381;BME280;66439;50.106;10.996;2024-01-06T02:46:39;97562.34;;;5.74;68.21
77381;BME280;66439;50.106;10.996;2024-01-06T02:48:42;97562.96;;;5.70;68.10
77381;BME280;66439;50.106;10.996;2024-01-06T02:50:45;97566.50;;;5.70;68.55
77381;BME280;66439;50.106;10.996;2024-01-06T02:52:48;97569.27;;;5.73;68.58
77381;BME280;66439;50.106;10.996;2024-01-06T02:54:51;97563.23;;;5.76;68.77
77381;BME280;66439;50.106;10.996;2024-01-06T02:56:54;97562.17;;;5.76;68.59
77381;BME280;66439;50.106;10.996;2024-01-06T02:58:57;97563.81;;;5.77;68.50
77381;BME280;66439;50.106;10.996;2024-01-06T03:01:00;97569.10;;;5.79;68.60
77381;BME280;66439;50.106;10.996;2024-01-06T03:03:03;97571.80;;;5.80;68.62
77381;BME280;66439;50.106;10.996;2024-01-06T03:05:06;97570.61;;;5.79;68.28
77381;BME280;66439;50.106;10.996;2024-01-06T03:07:10;97573.23;;;5.78;68.23
77381;BME280;66439;50.106;10.996;2024-01-06T03:09:14;97577.23;;;5.77;68.15
77381;BME280;66439;50.106;10.996;2024-01-06T03:11:18;97577.58;;;5.76;68.04
77381;BME280;66439;50.106;10.996;2024-01-06T03:13:23;97579.37;;;5.74;67.91
77381;BME280;66439;50.106;10.996;2024-01-06T03:15:26;97581.00;;;5.72;67.83
77381;BME280;66439;50.106;10.996;2024-01-06T03:17:29;97579.54;;;5.69;67.93
77381;BME280;66439;50.106;10.996;2024-01-06T03:19:32;97578.17;;;5.68;67.98
77381;BME280;66439;50.106;10.996;2024-01-06T03:21:35;97574.09;;;5.65;68.16
77381;BME280;66439;50.106;10.996;2024-01-06T03:23:39;97578.16;;;5.60;68.15
77381;BME280;66439;50.106;10.996;2024-01-06T03:25:43;97582.51;;;5.58;68.20
77381;BME280;66439;50.106;10.996;2024-01-06T03:27:48;97585.38;;;5.58;68.46
77381;BME280;66439;50.106;10.996;2024-01-06T03:29:52;97586.13;;;5.60;68.46
77381;BME280;66439;50.106;10.996;2024-01-06T03:31:55;97581.39;;;5.60;68.64
77381;BME280;66439;50.106;10.996;2024-01-06T03:33:58;97580.33;;;5.60;68.50
77381;BME280;66439;50.106;10.996;2024-01-06T03:36:05;97575.90;;;5.58;68.53
77381;BME280;66439;50.106;10.996;2024-01-06T03:38:09;97577.20;;;5.59;68.63
77381;BME280;66439;50.106;10.996;2024-01-06T03:40:17;97579.10;;;5.59;68.50
77381;BME280;66439;50.106;10.996;2024-01-06T03:42:19;97583.89;;;5.59;68.38
77381;BME280;66439;50.106;10.996;2024-01-06T03:44:25;97590.05;;;5.58;68.53
77381;BME280;66439;50.106;10.996;2024-01-06T03:46:34;97590.70;;;5.54;68.17
77381;BME280;66439;50.106;10.996;2024-01-06T03:48:38;97589.71;;;5.50;68.50
77381;BME280;66439;50.106;10.996;2024-01-06T03:50:44;97581.45;;;5.46;68.45
77381;BME280;66439;50.106;10.996;2024-01-06T03:52:46;97587.13;;;5.44;68.49
77381;BME280;66439;50.106;10.996;2024-01-06T03:54:56;97587.58;;;5.41;68.71
77381;BME280;66439;50.106;10.996;2024-01-06T03:56:59;97588.41;;;5.40;68.92
77381;BME280;66439;50.106;10.996;2024-01-06T03:59:03;97588.96;;;5.42;69.13
77381;BME280;66439;50.106;10.996;2024-01-06T04:01:05;97590.09;;;5.41;69.22
77381;BME280;66439;50.106;10.996;2024-01-06T04:03:09;97583.66;;;5.42;69.10
77381;BME280;66439;50.106;10.996;2024-01-06T04:05:13;97581.73;;;5.45;69.49
77381;BME280;66439;50.106;10.996;2024-01-06T04:07:16;97584.34;;;5.48;69.41
77381;BME280;66439;50.106;10.996;2024-01-06T04:09:20;97585.35;;;5.51;69.39
77381;BME280;66439;50.106;10.996;2024-01-06T04:11:24;97582.84;;;5.53;69.53
77381;BME280;66439;50.106;10.996;2024-01-06T04:13:28;97582.01;;;5.54;69.47
77381;BME280;66439;50.106;10.996;2024-01-06T04:15:32;97587.14;;;5.51;69.33
77381;BME280;66439;50.106;10.996;2024-01-06T04:17:36;97591.20;;;5.46;69.46
77381;BME280;66439;50.106;10.996;2024-01-06T04:19:40;97593.09;;;5.44;69.57
77381;BME280;66439;50.106;10.996;2024-01-06T04:21:47;97588.39;;;5.44;69.68
77381;BME280;66439;50.106;10.996;2024-01-06T04:23:51;97594.67;;;5.44;69.69
77381;BME280;66439;50.106;10.996;2024-01-06T04:25:54;97594.04;;;5.45;69.79
77381;BME280;66439;50.106;10.996;2024-01-06T04:27:58;97593.69;;;5.45;69.87
77381;BME280;66439;50.106;10.996;2024-01-06T04:30:02;97600.98;;;5.45;69.72
77381;BME280;66439;50.106;10.996;2024-01-06T04:32:05;97598.23;;;5.43;69.63
77381;BME280;66439;50.106;10.996;2024-01-06T04:34:10;97601.90;;;5.42;69.52
77381;BME280;66439;50.106;10.996;2024-01-06T04:36:13;97601.47;;;5.43;69.54
77381;BME280;66439;50.106;10.996;2024-01-06T04:38:17;97603.05;;;5.43;69.27
77381;BME280;66439;50.106;10.996;2024-01-06T04:40:20;97603.76;;;5.44;69.61
77381;BME280;66439;50.106;10.996;2024-01-06T04:42:23;97602.96;;;5.47;69.84
77381;BME280;66439;50.106;10.996;2024-01-06T04:44:27;97604.92;;;5.49;69.83
77381;BME280;66439;50.106;10.996;2024-01-06T04:46:30;97601.42;;;5.52;69.98
77381;BME280;66439;50.106;10.996;2024-01-06T04:48:33;97601.90;;;5.54;70.08
77381;BME280;66439;50.106;10.996;2024-01-06T04:50:36;97597.95;;;5.53;69.55
77381;BME280;66439;50.106;10.996;2024-01-06T04:52:39;97602.52;;;5.47;69.26
77381;BME280;66439;50.106;10.996;2024-01-06T04:54:42;97603.17;;;5.40;69.41
77381;BME280;66439;50.106;10.996;2024-01-06T04:56:45;97609.42;;;5.36;69.29
77381;BME280;66439;50.106;10.996;2024-01-06T04:58:48;97613.92;;;5.33;69.66
77381;BME280;66439;50.106;10.996;2024-01-06T05:00:51;97615.88;;;5.32;69.54
77381;BME280;66439;50.106;10.996;2024-01-06T05:02:55;97617.79;;;5.27;69.52
77381;BME280;66439;50.106;10.996;2024-01-06T05:04:58;97616.13;;;5.22;69.41
77381;BME280;66439;50.106;10.996;2024-01-06T05:07:01;97616.97;;;5.19;69.68
77381;BME280;66439;50.106;10.996;2024-01-06T05:09:06;97616.98;;;5.20;69.79
77381;BME280;66439;50.106;10.996;2024-01-06T05:11:10;97611.32;;;5.23;69.91
77381;BME280;66439;50.106;10.996;2024-01-06T05:13:14;97613.05;;;5.27;69.93
77381;BME280;66439;50.106;10.996;2024-01-06T05:15:17;97612.39;;;5.32;69.80
77381;BME280;66439;50.106;10.996;2024-01-06T05:17:20;97612.48;;;5.34;69.74
77381;BME280;66439;50.106;10.996;2024-01-06T05:19:23;97609.83;;;5.36;69.82
77381;BME280;66439;50.106;10.996;2024-01-06T05:21:27;97610.52;;;5.32;69.51
77381;BME280;66439;50.106;10.996;2024-01-06T05:23:32;97614.48;;;5.26;69.34
77381;BME280;66439;50.106;10.996;2024-01-06T05:25:35;97618.63;;;5.22;69.63
77381;BME280;66439;50.106;10.996;2024-01-06T05:27:38;97620.73;;;5.22;69.74
77381;BME280;66439;50.106;10.996;2024-01-06T05:29:42;97621.39;;;5.19;69.63
77381;BME280;66439;50.106;10.996;2024-01-06T05:31:45;97623.79;;;5.18;69.54
77381;BME280;66439;50.106;10.996;2024-01-06T05:33:50;97620.80;;;5.17;69.49
77381;BME280;66439;50.106;10.996;2024-01-06T05:35:53;97625.52;;;5.15;69.52
77381;BME280;66439;50.106;10.996;2024-01-06T05:37:57;97627.47;;;5.10;69.40
77381;BME280;66439;50.106;10.996;2024-01-06T05:39:59;97628.56;;;5.04;69.49
77381;BME280;66439;50.106;10.996;2024-01-06T05:42:06;97625.63;;;5.01;69.57
77381;BME280;66439;50.106;10.996;2024-01-06T05:44:10;97632.43;;;5.01;69.59
77381;BME280;66439;50.106;10.996;2024-01-06T05:46:26;97634.95;;;5.03;69.60
77381;BME280;66439;50.106;10.996;2024-01-06T05:48:28;97641.38;;;5.07;69.54
77381;BME280;66439;50.106;10.996;2024-01-06T05:50:32;97643.44;;;5.10;69.34
77381;BME280;66439;50.106;10.996;2024-01-06T05:52:34;97641.48;;;5.12;69.42
77381;BME280;66439;50.106;10.996;2024-01-06T05:54:41;97641.98;;;5.11;69.17
77381;BME280;66439;50.106;10.996;2024-01-06T05:56:47;97641.39;;;5.10;69.27
77381;BME280;66439;50.106;10.996;2024-01-06T05:58:50;97652.46;;;5.08;69.25
77381;BME280;66439;50.106;10.996;2024-01-06T06:00:52;97652.99;;;5.06;69.27
77381;BME280;66439;50.106;10.996;2024-01-06T06:02:57;97651.20;;;5.06;69.16
77381;BME280;66439;50.106;10.996;2024-01-06T06:05:06;97651.77;;;5.04;69.26
77381;BME280;66439;50.106;10.996;2024-01-06T06:07:09;97659.16;;;5.00;69.08
77381;BME280;66439;50.106;10.996;2024-01-06T06:09:12;97661.92;;;4.99;69.21
77381;BME280;66439;50.106;10.996;2024-01-06T06:11:15;97670.70;;;4.98;69.38
77381;BME280;66439;50.106;10.996;2024-01-06T06:13:19;97673.60;;;4.97;69.49
77381;BME280;66439;50.106;10.996;2024-01-06T06:15:22;97674.25;;;4.96;69.30
77381;BME280;66439;50.106;10.996;2024-01-06T06:17:26;97681.54;;;4.95;69.42
77381;BME280;66439;50.106;10.996;2024-01-06T06:19:29;97683.75;;;4.94;69.45
77381;BME280;66439;50.106;10.996;2024-01-06T06:21:31;97685.35;;;4.91;69.20
77381;BME280;66439;50.106;10.996;2024-01-06T06:23:34;97691.88;;;4.89;69.28
77381;BME280;66439;50.106;10.996;2024-01-06T06:25:40;97693.25;;;4.89;69.34
77381;BME280;66439;50.106;10.996;2024-01-06T06:27:43;97695.39;;;4.92;69.36
77381;BME280;66439;50.106;10.996;2024-01-06T06:29:50;97699.98;;;4.94;69.17
77381;BME280;66439;50.106;10.996;2024-01-06T06:31:53;97703.26;;;4.93;68.91
77381;BME280;66439;50.106;10.996;2024-01-06T06:33:56;97705.10;;;4.90;68.83
77381;BME280;66439;50.106;10.996;2024-01-06T06:35:59;97711.90;;;4.85;68.64
77381;BME280;66439;50.106;10.996;2024-01-06T06:38:02;97712.11;;;4.82;68.77
77381;BME280;66439;50.106;10.996;2024-01-06T06:40:05;97715.19;;;4.78;68.72
77381;BME280;66439;50.106;10.996;2024-01-06T06:42:08;97717.80;;;4.74;68.74
77381;BME280;66439;50.106;10.996;2024-01-06T06:44:12;97716.79;;;4.72;68.73
77381;BME280;66439;50.106;10.996;2024-01-06T06:46:16;97718.44;;;4.70;68.96
77381;BME280;66439;50.106;10.996;2024-01-06T06:48:19;97724.73;;;4.68;68.87
77381;BME280;66439;50.106;10.996;2024-01-06T06:50:21;97729.45;;;4.67;68.95
77381;BME280;66439;50.106;10.996;2024-01-06T06:52:25;97742.32;;;4.66;69.20
77381;BME280;66439;50.106;10.996;2024-01-06T06:54:29;97745.84;;;4.63;68.72
77381;BME280;66439;50.106;10.996;2024-01-06T06:56:31;97745.36;;;4.58;68.80
77381;BME280;66439;50.106;10.996;2024-01-06T06:58:34;97748.98;;;4.53;68.89
77381;BME280;66439;50.106;10.996;2024-01-06T07:00:38;97752.80;;;4.49;68.84
77381;BME280;66439;50.106;10.996;2024-01-06T07:02:46;97758.08;;;4.46;69.17
77381;BME280;66439;50.106;10.996;2024-01-06T07:04:49;97760.84;;;4.48;69.39
77381;BME280;66439;50.106;10.996;2024-01-06T07:06:52;97764.67;;;4.50;69.43
77381;BME280;66439;50.106;10.996;2024-01-06T07:08:55;97773.48;;;4.52;69.47
77381;BME280;66439;50.106;10.996;2024-01-06T07:10:58;97777.57;;;4.53;70.02
77381;BME280;66439;50.106;10.996;2024-01-06T07:13:02;97779.21;;;4.58;70.07
77381;BME280;66439;50.106;10.996;2024-01-06T07:15:05;97780.80;;;4.61;70.10
77381;BME280;66439;50.106;10.996;2024-01-06T07:17:09;97777.85;;;4.64;69.95
77381;BME280;66439;50.106;10.996;2024-01-06T07:19:12;97777.50;;;4.65;70.17
77381;BME280;66439;50.106;10.996;2024-01-06T07:21:15;97780.22;;;4.66;69.97
77381;BME280;66439;50.106;10.996;2024-01-06T07:23:18;97784.42;;;4.65;69.84
77381;BME280;66439;50.106;10.996;2024-01-06T07:25:22;97789.55;;;4.64;70.00
77381;BME280;66439;50.106;10.996;2024-01-06T07:27:24;97788.50;;;4.64;70.03
77381;BME280;66439;50.106;10.996;2024-01-06T07:29:27;97792.67;;;4.65;69.99
77381;BME280;66439;50.106;10.996;2024-01-06T07:31:30;97794.39;;;4.65;69.99
77381;BME280;66439;50.106;10.996;2024-01-06T07:33:33;97799.39;;;4.66;70.08
77381;BME280;66439;50.106;10.996;2024-01-06T07:35:36;97798.45;;;4.67;70.02
77381;BME280;66439;50.106;10.996;2024-01-06T07:37:38;97798.27;;;4.70;70.06
77381;BME280;66439;50.106;10.996;2024-01-06T07:39:41;97796.45;;;4.74;69.92
77381;BME280;66439;50.106;10.996;2024-01-06T07:41:44;97797.26;;;4.76;69.91
77381;BME280;66439;50.106;10.996;2024-01-06T07:43:48;97799.96;;;4.75;70.04
77381;BME280;66439;50.106;10.996;2024-01-06T07:45:53;97801.36;;;4.77;69.90
77381;BME280;66439;50.106;10.996;2024-01-06T07:47:56;97802.16;;;4.77;69.93
77381;BME280;66439;50.106;10.996;2024-01-06T07:49:59;97805.88;;;4.77;69.97
77381;BME280;66439;50.106;10.996;2024-01-06T07:52:02;97802.97;;;4.76;69.85
77381;BME280;66439;50.106;10.996;2024-01-06T07:54:05;97805.13;;;4.74;69.69
77381;BME280;66439;50.106;10.996;2024-01-06T07:56:09;97804.93;;;4.70;69.47
77381;BME280;66439;50.106;10.996;2024-01-06T07:58:12;97807.25;;;4.66;69.53
77381;BME280;66439;50.106;10.996;2024-01-06T08:00:22;97813.73;;;4.64;69.78
77381;BME280;66439;50.106;10.996;2024-01-06T08:02:25;97817.94;;;4.61;69.82
77381;BME280;66439;50.106;10.996;2024-01-06T08:04:29;97818.43;;;4.61;70.03
77381;BME280;66439;50.106;10.996;2024-01-06T08:06:32;97819.30;;;4.63;70.29
77381;BME280;66439;50.106;10.996;2024-01-06T08:08:36;97821.92;;;4.65;70.22
77381;BME280;66439;50.106;10.996;2024-01-06T08:10:38;97813.77;;;4.66;69.90
77381;BME280;66439;50.106;10.996;2024-01-06T08:12:42;97811.89;;;4.66;69.71
77381;BME280;66439;50.106;10.996;2024-01-06T08:14:45;97813.41;;;4.66;69.76
77381;BME280;66439;50.106;10.996;2024-01-06T08:16:48;97809.69;;;4.63;69.74
77381;BME280;66439;50.106;10.996;2024-01-06T08:18:51;97811.83;;;4.66;70.25
77381;BME280;66439;50.106;10.996;2024-01-06T08:20:55;97810.86;;;4.65;70.24
77381;BME280;66439;50.106;10.996;2024-01-06T08:22:58;97813.27;;;4.64;70.05
77381;BME280;66439;50.106;10.996;2024-01-06T08:25:01;97813.11;;;4.62;70.05
77381;BME280;66439;50.106;10.996;2024-01-06T08:27:05;97816.63;;;4.62;70.18
77381;BME280;66439;50.106;10.996;2024-01-06T08:29:08;97818.02;;;4.62;70.47
77381;BME280;66439;50.106;10.996;2024-01-06T08:31:11;97826.77;;;4.64;70.64
77381;BME280;66439;50.106;10.996;2024-01-06T08:33:14;97831.50;;;4.66;70.75
77381;BME280;66439;50.106;10.996;2024-01-06T08:35:17;97829.70;;;4.67;70.59
77381;BME280;66439;50.106;10.996;2024-01-06T08:37:19;97825.02;;;4.66;70.66
77381;BME280;66439;50.106;10.996;2024-01-06T08:39:22;97825.20;;;4.64;70.59
77381;BME280;66439;50.106;10.996;2024-01-06T08:41:27;97826.44;;;4.64;70.36
77381;BME280;66439;50.106;10.996;2024-01-06T08:43:30;97831.77;;;4.67;70.56
77381;BME280;66439;50.106;10.996;2024-01-06T08:45:33;97838.43;;;4.70;70.69
77381;BME280;66439;50.106;10.996;2024-01-06T08:47:36;97841.48;;;4.72;70.86
77381;BME280;66439;50.106;10.996;2024-01-06T08:49:40;97838.43;;;4.75;70.78
77381;BME280;66439;50.106;10.996;2024-01-06T08:51:44;97843.06;;;4.76;70.70
77381;BME280;66439;50.106;10.996;2024-01-06T08:53:48;97851.45;;;4.76;70.78
77381;BME280;66439;50.106;10.996;2024-01-06T08:55:50;97854.38;;;4.75;70.45
77381;BME280;66439;50.106;10.996;2024-01-06T08:57:53;97853.16;;;4.75;70.71
77381;BME280;66439;50.106;10.996;2024-01-06T08:59:59;97858.16;;;4.76;70.86
77381;BME280;66439;50.106;10.996;2024-01-06T09:02:02;97857.15;;;4.77;70.94
77381;BME280;66439;50.106;10.996;2024-01-06T09:04:05;97862.77;;;4.78;70.97
77381;BME280;66439;50.106;10.996;2024-01-06T09:06:09;97864.27;;;4.80;70.93
77381;BME280;66439;50.106;10.996;2024-01-06T09:08:13;97866.54;;;4.81;70.87
77381;BME280;66439;50.106;10.996;2024-01-06T09:10:17;97867.30;;;4.80;70.83
77381;BME280;66439;50.106;10.996;2024-01-06T09:12:20;97866.45;;;4.83;70.66
77381;BME280;66439;50.106;10.996;2024-01-06T09:14:23;97866.34;;;4.86;70.69
77381;BME280;66439;50.106;10.996;2024-01-06T09:16:27;97860.38;;;4.89;70.56
77381;BME280;66439;50.106;10.996;2024-01-06T09:18:29;97864.09;;;4.89;70.60
77381;BME280;66439;50.106;10.996;2024-01-06T09:20:33;97869.45;;;4.90;70.58
77381;BME280;66439;50.106;10.996;2024-01-06T09:22:36;97871.69;;;4.92;70.64
77381;BME280;66439;50.106;10.996;2024-01-06T09:24:39;97874.52;;;4.93;70.74
77381;BME280;66439;50.106;10.996;2024-01-06T09:26:46;97873.79;;;4.97;70.77
77381;BME280;66439;50.106;10.996;2024-01-06T09:28:49;97875.36;;;4.96;70.91
77381;BME280;66439;50.106;10.996;2024-01-06T09:30:52;97877.34;;;4.98;71.04
77381;BME280;66439;50.106;10.996;2024-01-06T09:32:57;97882.67;;;4.99;70.83
77381;BME280;66439;50.106;10.996;2024-01-06T09:35:00;97887.17;;;4.99;70.78
77381;BME280;66439;50.106;10.996;2024-01-06T09:37:03;97888.91;;;4.99;70.86
77381;BME280;66439;50.106;10.996;2024-01-06T09:39:08;97890.20;;;4.99;70.74
77381;BME280;66439;50.106;10.996;2024-01-06T09:41:10;97889.46;;;4.98;70.51
77381;BME280;66439;50.106;10.996;2024-01-06T09:43:13;97885.83;;;4.95;70.55
77381;BME280;66439;50.106;10.996;2024-01-06T09:45:16;97884.61;;;4.95;70.74
77381;BME280;66439;50.106;10.996;2024-01-06T09:47:22;97888.10;;;4.99;70.68
77381;BME280;66439;50.106;10.996;2024-01-06T09:49:26;97889.41;;;5.04;70.86
77381;BME280;66439;50.106;10.996;2024-01-06T09:51:31;97888.27;;;5.10;70.87
77381;BME280;66439;50.106;10.996;2024-01-06T09:53:34;97887.20;;;5.16;70.98
77381;BME280;66439;50.106;10.996;2024-01-06T09:55:39;97888.10;;;5.23;70.88
77381;BME280;66439;50.106;10.996;2024-01-06T09:57:44;97888.29;;;5.29;70.90
77381;BME280;66439;50.106;10.996;2024-01-06T09:59:47;97888.33;;;5.33;70.78
77381;BME280;66439;50.106;10.996;2024-01-06T10:01:50;97889.20;;;5.35;70.63
77381;BME280;66439;50.106;10.996;2024-01-06T10:03:55;97891.29;;;5.38;70.45
77381;BME280;66439;50.106;10.996;2024-01-06T10:05:58;97895.27;;;5.39;70.27
77381;BME280;66439;50.106;10.996;2024-01-06T10:08:06;97896.26;;;5.40;70.40
77381;BME280;66439;50.106;10.996;2024-01-06T10:10:09;97894.55;;;5.39;70.34
77381;BME280;66439;50.106;10.996;2024-01-06T10:12:13;97893.83;;;5.40;70.51
77381;BME280;66439;50.106;10.996;2024-01-06T10:14:16;97894.96;;;5.40;70.58
77381;BME280;66439;50.106;10.996;2024-01-06T10:16:19;97900.89;;;5.41;70.68
77381;BME280;66439;50.106;10.996;2024-01-06T10:18:22;97898.31;;;5.45;70.78
77381;BME280;66439;50.106;10.996;2024-01-06T10:20:28;97897.65;;;5.49;70.62
77381;BME280;66439;50.106;10.996;2024-01-06T10:22:30;97892.81;;;5.52;70.59
77381;BME280;66439;50.106;10.996;2024-01-06T10:24:40;97893.98;;;5.55;70.64
77381;BME280;66439;50.106;10.996;2024-01-06T10:26:42;97894.60;;;5.57;70.74
77381;BME280;66439;50.106;10.996;2024-01-06T10:28:48;97896.98;;;5.59;70.55
77381;BME280;66439;50.106;10.996;2024-01-06T10:30:52;97904.08;;;5.60;70.62
77381;BME280;66439;50.106;10.996;2024-01-06T10:32:56;97908.20;;;5.61;70.48
77381;BME280;66439;50.106;10.996;2024-01-06T10:35:03;97904.77;;;5.59;70.22
77381;BME280;66439;50.106;10.996;2024-01-06T10:37:06;97906.83;;;5.56;70.13
77381;BME280;66439;50.106;10.996;2024-01-06T10:39:09;97905.60;;;5.53;70.19
77381;BME280;66439;50.106;10.996;2024-01-06T10:41:15;97905.54;;;5.51;70.30
77381;BME280;66439;50.106;10.996;2024-01-06T10:43:19;97903.44;;;5.49;70.47
77381;BME280;66439;50.106;10.996;2024-01-06T10:45:23;97901.88;;;5.49;70.49
77381;BME280;66439;50.106;10.996;2024-01-06T10:47:28;97897.88;;;5.47;70.49
77381;BME280;66439;50.106;10.996;2024-01-06T10:49:34;97898.04;;;5.47;70.45
77381;BME280;66439;50.106;10.996;2024-01-06T10:51:38;97902.64;;;5.50;70.54
77381;BME280;66439;50.106;10.996;2024-01-06T10:53:43;97908.26;;;5.53;70.56
77381;BME280;66439;50.106;10.996;2024-01-06T10:55:49;97910.46;;;5.57;70.90